sensor_id;sensor_type;location;lat;lon;timestamp;P1;durP1;ratioP1;P2;durP2;ratioP2
13855;SDS011;6998;53.608;9.958;2023-02-01T00:02:17;27.90;;;5.27;;
13855;SDS011;6998;53.608;9.958;2023-02-01T00:11:06;24.43;;;5.50;;
13855;SDS011;6998;53.608;9.958;2023-02-01T00:13:35;24.70;;;5.40;;
13855;SDS011;6998;53.608;9.958;2023-02-01T00:16:05;29.37;;;5.93;;
13855;SDS011;6998;53.608;9.958;2023-02-01T00:18:33;26.37;;;5.50;;
13855;SDS011;6998;53.608;9.958;2023-02-01T00:21:00;25.90;;;6.13;;
13855;SDS011;6998;53.608;9.958;2023-02-01T00:23:28;26.70;;;5.63;;
13855;SDS011;6998;53.608;9.958;2023-02-01T00:25:54;20.47;;;5.03;;
13855;SDS011;6998;53.608;9.958;2023-02-01T00:31:50;27.70;;;4.97;;
13855;SDS011;6998;53.608;9.958;2023-02-01T00:41:02;29.00;;;5.90;;
13855;SDS011;6998;53.608;9.958;2023-02-01T00:46:54;28.13;;;4.83;;
13855;SDS011;6998;53.608;9.958;2023-02-01T00:49:21;31.43;;;6.53;;
13855;SDS011;6998;53.608;9.958;2023-02-01T00:51:48;31.20;;;6.70;;
13855;SDS011;6998;53.608;9.958;2023-02-01T00:54:15;31.23;;;5.60;;
13855;SDS011;6998;53.608;9.958;2023-02-01T00:56:41;34.10;;;5.97;;
13855;SDS011;6998;53.608;9.958;2023-02-01T00:59:10;33.37;;;6.57;;
13855;SDS011;6998;53.608;9.958;2023-02-01T01:01:37;26.83;;;6.43;;
13855;SDS011;6998;53.608;9.958;2023-02-01T01:04:05;27.53;;;6.13;;
13855;SDS011;6998;53.608;9.958;2023-02-01T01:06:33;36.63;;;7.03;;
13855;SDS011;6998;53.608;9.958;2023-02-01T01:09:01;30.17;;;6.67;;
13855;SDS011;6998;53.608;9.958;2023-02-01T01:11:30;28.90;;;6.60;;
13855;SDS011;6998;53.608;9.958;2023-02-01T01:13:59;40.53;;;7.17;;
13855;SDS011;6998;53.608;9.958;2023-02-01T01:16:27;35.17;;;6.77;;
13855;SDS011;6998;53.608;9.958;2023-02-01T01:18:55;30.83;;;6.93;;
13855;SDS011;6998;53.608;9.958;2023-02-01T01:21:24;29.97;;;6.40;;
13855;SDS011;6998;53.608;9.958;2023-02-01T01:23:51;28.87;;;6.90;;
13855;SDS011;6998;53.608;9.958;2023-02-01T01:26:19;36.53;;;6.40;;
13855;SDS011;6998;53.608;9.958;2023-02-01T01:28:47;38.97;;;7.50;;
13855;SDS011;6998;53.608;9.958;2023-02-01T01:31:15;31.20;;;5.97;;
13855;SDS011;6998;53.608;9.958;2023-02-01T01:33:43;32.30;;;6.37;;
13855;SDS011;6998;53.608;9.958;2023-02-01T01:36:10;33.20;;;6.73;;
13855;SDS011;6998;53.608;9.958;2023-02-01T01:38:39;38.83;;;7.67;;
13855;SDS011;6998;53.608;9.958;2023-02-01T01:41:07;32.07;;;6.57;;
13855;SDS011;6998;53.608;9.958;2023-02-01T01:43:48;35.07;;;6.73;;
13855;SDS011;6998;53.608;9.958;2023-02-01T01:46:20;28.90;;;6.67;;
13855;SDS011;6998;53.608;9.958;2023-02-01T01:48:50;37.00;;;6.60;;
13855;SDS011;6998;53.608;9.958;2023-02-01T01:51:23;31.60;;;6.57;;
13855;SDS011;6998;53.608;9.958;2023-02-01T01:53:55;35.23;;;6.87;;
13855;SDS011;6998;53.608;9.958;2023-02-01T01:56:27;32.20;;;6.80;;
13855;SDS011;6998;53.608;9.958;2023-02-01T01:58:56;34.37;;;7.30;;
13855;SDS011;6998;53.608;9.958;2023-02-01T02:01:42;33.33;;;6.53;;
13855;SDS011;6998;53.608;9.958;2023-02-01T02:04:09;32.13;;;6.37;;
13855;SDS011;6998;53.608;9.958;2023-02-01T02:06:39;37.10;;;7.03;;
13855;SDS011;6998;53.608;9.958;2023-02-01T02:09:11;32.80;;;6.77;;
13855;SDS011;6998;53.608;9.958;2023-02-01T02:11:38;32.00;;;7.03;;
13855;SDS011;6998;53.608;9.958;2023-02-01T02:14:06;33.63;;;6.43;;
13855;SDS011;6998;53.608;9.958;2023-02-01T02:16:40;26.87;;;6.33;;
13855;SDS011;6998;53.608;9.958;2023-02-01T02:19:32;42.03;;;7.37;;
13855;SDS011;6998;53.608;9.958;2023-02-01T02:22:35;33.77;;;6.53;;
13855;SDS011;6998;53.608;9.958;2023-02-01T02:25:26;33.97;;;6.43;;
13855;SDS011;6998;53.608;9.958;2023-02-01T02:28:05;32.07;;;6.70;;
13855;SDS011;6998;53.608;9.958;2023-02-01T02:30:50;28.17;;;7.83;;
13855;SDS011;6998;53.608;9.958;2023-02-01T02:33:48;31.70;;;7.07;;
13855;SDS011;6998;53.608;9.958;2023-02-01T02:36:26;36.93;;;6.73;;
13855;SDS011;6998;53.608;9.958;2023-02-01T02:39:05;36.63;;;6.80;;
13855;SDS011;6998;53.608;9.958;2023-02-01T02:41:42;32.47;;;5.90;;
13855;SDS011;6998;53.608;9.958;2023-02-01T02:44:34;28.53;;;6.70;;
13855;SDS011;6998;53.608;9.958;2023-02-01T02:47:28;37.43;;;6.50;;
13855;SDS011;6998;53.608;9.958;2023-02-01T02:50:05;32.90;;;6.57;;
13855;SDS011;6998;53.608;9.958;2023-02-01T02:52:59;30.87;;;6.33;;
13855;SDS011;6998;53.608;9.958;2023-02-01T02:55:47;34.67;;;7.00;;
13855;SDS011;6998;53.608;9.958;2023-02-01T02:58:16;31.70;;;6.27;;
13855;SDS011;6998;53.608;9.958;2023-02-01T03:01:01;29.53;;;6.17;;
13855;SDS011;6998;53.608;9.958;2023-02-01T03:03:47;27.87;;;6.23;;
13855;SDS011;6998;53.608;9.958;2023-02-01T03:06:36;27.57;;;6.37;;
13855;SDS011;6998;53.608;9.958;2023-02-01T03:09:05;37.23;;;7.30;;
13855;SDS011;6998;53.608;9.958;2023-02-01T03:11:39;35.63;;;7.17;;
13855;SDS011;6998;53.608;9.958;2023-02-01T03:14:27;30.27;;;6.07;;
13855;SDS011;6998;53.608;9.958;2023-02-01T03:16:57;30.80;;;7.33;;
13855;SDS011;6998;53.608;9.958;2023-02-01T03:19:29;32.83;;;6.07;;
13855;SDS011;6998;53.608;9.958;2023-02-01T03:22:02;31.87;;;6.83;;
13855;SDS011;6998;53.608;9.958;2023-02-01T03:24:34;36.77;;;6.73;;
13855;SDS011;6998;53.608;9.958;2023-02-01T03:27:05;34.67;;;7.00;;
13855;SDS011;6998;53.608;9.958;2023-02-01T03:29:38;27.00;;;6.07;;
13855;SDS011;6998;53.608;9.958;2023-02-01T03:32:11;29.40;;;5.63;;
13855;SDS011;6998;53.608;9.958;2023-02-01T03:45:23;18.90;;;3.80;;
13855;SDS011;6998;53.608;9.958;2023-02-01T03:47:55;19.77;;;4.20;;
13855;SDS011;6998;53.608;9.958;2023-02-01T03:50:25;16.57;;;4.47;;
13855;SDS011;6998;53.608;9.958;2023-02-01T03:52:54;25.17;;;4.20;;
13855;SDS011;6998;53.608;9.958;2023-02-01T03:55:25;18.50;;;3.90;;
13855;SDS011;6998;53.608;9.958;2023-02-01T03:57:56;26.77;;;4.50;;
13855;SDS011;6998;53.608;9.958;2023-02-01T04:00:26;22.83;;;4.50;;
13855;SDS011;6998;53.608;9.958;2023-02-01T04:02:53;25.03;;;4.93;;
13855;SDS011;6998;53.608;9.958;2023-02-01T04:05:21;24.17;;;4.87;;
13855;SDS011;6998;53.608;9.958;2023-02-01T04:07:47;17.60;;;3.93;;
13855;SDS011;6998;53.608;9.958;2023-02-01T04:10:14;21.93;;;5.17;;
13855;SDS011;6998;53.608;9.958;2023-02-01T04:12:42;20.67;;;4.27;;
13855;SDS011;6998;53.608;9.958;2023-02-01T04:15:09;30.93;;;5.70;;
13855;SDS011;6998;53.608;9.958;2023-02-01T04:17:38;23.07;;;4.20;;
13855;SDS011;6998;53.608;9.958;2023-02-01T04:20:05;17.90;;;4.53;;
13855;SDS011;6998;53.608;9.958;2023-02-01T04:22:34;20.90;;;4.87;;
13855;SDS011;6998;53.608;9.958;2023-02-01T04:25:01;24.70;;;4.90;;
13855;SDS011;6998;53.608;9.958;2023-02-01T04:27:27;22.17;;;5.13;;
13855;SDS011;6998;53.608;9.958;2023-02-01T04:29:54;21.77;;;4.90;;
13855;SDS011;6998;53.608;9.958;2023-02-01T04:32:21;23.30;;;4.80;;
13855;SDS011;6998;53.608;9.958;2023-02-01T04:34:49;28.40;;;4.57;;
13855;SDS011;6998;53.608;9.958;2023-02-01T04:37:16;17.97;;;4.00;;
13855;SDS011;6998;53.608;9.958;2023-02-01T04:43:01;23.00;;;4.20;;
13855;SDS011;6998;53.608;9.958;2023-02-01T04:45:32;24.03;;;3.90;;
13855;SDS011;6998;53.608;9.958;2023-02-01T04:52:29;12.97;;;3.23;;
13855;SDS011;6998;53.608;9.958;2023-02-01T06:49:28;8.90;;;2.47;;
13855;SDS011;6998;53.608;9.958;2023-02-01T06:54:34;13.20;;;2.90;;
13855;SDS011;6998;53.608;9.958;2023-02-01T06:57:02;13.93;;;2.70;;
13855;SDS011;6998;53.608;9.958;2023-02-01T06:59:29;13.03;;;2.60;;
13855;SDS011;6998;53.608;9.958;2023-02-01T07:16:59;13.03;;;3.37;;
13855;SDS011;6998;53.608;9.958;2023-02-01T07:22:27;18.20;;;3.90;;
13855;SDS011;6998;53.608;9.958;2023-02-01T07:24:54;24.27;;;4.10;;
13855;SDS011;6998;53.608;9.958;2023-02-01T07:32:54;21.20;;;4.13;;
13855;SDS011;6998;53.608;9.958;2023-02-01T07:54:11;26.93;;;5.30;;
13855;SDS011;6998;53.608;9.958;2023-02-01T07:56:37;35.80;;;6.03;;
13855;SDS011;6998;53.608;9.958;2023-02-01T07:59:04;36.87;;;6.47;;
13855;SDS011;6998;53.608;9.958;2023-02-01T08:01:32;28.37;;;5.00;;
13855;SDS011;6998;53.608;9.958;2023-02-01T08:03:59;34.83;;;5.93;;
13855;SDS011;6998;53.608;9.958;2023-02-01T08:06:28;32.20;;;5.87;;
13855;SDS011;6998;53.608;9.958;2023-02-01T08:08:56;33.53;;;5.80;;
13855;SDS011;6998;53.608;9.958;2023-02-01T08:11:25;35.20;;;5.97;;
13855;SDS011;6998;53.608;9.958;2023-02-01T08:13:52;29.13;;;6.00;;
13855;SDS011;6998;53.608;9.958;2023-02-01T08:16:19;29.43;;;5.73;;
13855;SDS011;6998;53.608;9.958;2023-02-01T08:18:47;21.73;;;5.13;;
13855;SDS011;6998;53.608;9.958;2023-02-01T08:21:14;29.47;;;5.53;;
13855;SDS011;6998;53.608;9.958;2023-02-01T08:23:42;25.30;;;5.53;;
13855;SDS011;6998;53.608;9.958;2023-02-01T08:26:10;27.83;;;6.67;;
13855;SDS011;6998;53.608;9.958;2023-02-01T08:28:41;31.17;;;5.60;;
13855;SDS011;6998;53.608;9.958;2023-02-01T08:31:12;28.07;;;5.20;;
13855;SDS011;6998;53.608;9.958;2023-02-01T08:33:41;28.03;;;6.07;;
13855;SDS011;6998;53.608;9.958;2023-02-01T09:02:54;23.37;;;4.20;;
13855;SDS011;6998;53.608;9.958;2023-02-01T09:05:24;20.63;;;4.60;;
13855;SDS011;6998;53.608;9.958;2023-02-01T09:07:52;29.47;;;4.70;;
13855;SDS011;6998;53.608;9.958;2023-02-01T09:10:21;25.00;;;4.73;;
13855;SDS011;6998;53.608;9.958;2023-02-01T09:12:48;24.03;;;5.57;;
13855;SDS011;6998;53.608;9.958;2023-02-01T09:15:15;30.67;;;5.53;;
13855;SDS011;6998;53.608;9.958;2023-02-01T09:20:26;23.30;;;5.00;;
13855;SDS011;6998;53.608;9.958;2023-02-01T09:28:24;25.90;;;5.47;;
13855;SDS011;6998;53.608;9.958;2023-02-01T09:30:54;27.97;;;5.57;;
13855;SDS011;6998;53.608;9.958;2023-02-01T09:33:22;24.87;;;4.90;;
13855;SDS011;6998;53.608;9.958;2023-02-01T09:38:34;28.93;;;5.37;;
13855;SDS011;6998;53.608;9.958;2023-02-01T09:43:46;29.67;;;5.93;;
13855;SDS011;6998;53.608;9.958;2023-02-01T09:46:20;21.60;;;5.00;;
13855;SDS011;6998;53.608;9.958;2023-02-01T09:48:52;24.17;;;4.57;;
13855;SDS011;6998;53.608;9.958;2023-02-01T09:51:23;22.67;;;4.97;;
13855;SDS011;6998;53.608;9.958;2023-02-01T09:53:58;28.73;;;4.97;;
13855;SDS011;6998;53.608;9.958;2023-02-01T09:56:33;23.03;;;5.63;;
13855;SDS011;6998;53.608;9.958;2023-02-01T09:59:04;25.17;;;5.23;;
13855;SDS011;6998;53.608;9.958;2023-02-01T10:01:52;25.47;;;5.33;;
13855;SDS011;6998;53.608;9.958;2023-02-01T10:04:24;22.63;;;5.20;;
13855;SDS011;6998;53.608;9.958;2023-02-01T10:06:56;21.77;;;5.00;;
13855;SDS011;6998;53.608;9.958;2023-02-01T10:09:38;26.67;;;5.43;;
13855;SDS011;6998;53.608;9.958;2023-02-01T10:12:19;30.37;;;6.07;;
13855;SDS011;6998;53.608;9.958;2023-02-01T10:15:10;22.93;;;4.80;;
13855;SDS011;6998;53.608;9.958;2023-02-01T10:17:48;26.53;;;5.00;;
13855;SDS011;6998;53.608;9.958;2023-02-01T10:20:29;22.60;;;5.37;;
13855;SDS011;6998;53.608;9.958;2023-02-01T10:23:06;33.77;;;5.40;;
13855;SDS011;6998;53.608;9.958;2023-02-01T10:25:49;21.57;;;5.17;;
13855;SDS011;6998;53.608;9.958;2023-02-01T10:28:21;27.07;;;6.43;;
13855;SDS011;6998;53.608;9.958;2023-02-01T10:30:51;33.67;;;7.10;;
13855;SDS011;6998;53.608;9.958;2023-02-01T10:33:24;24.93;;;4.67;;
13855;SDS011;6998;53.608;9.958;2023-02-01T10:35:53;21.83;;;4.93;;
13855;SDS011;6998;53.608;9.958;2023-02-01T10:38:23;21.10;;;4.87;;
13855;SDS011;6998;53.608;9.958;2023-02-01T10:40:55;26.73;;;5.23;;
13855;SDS011;6998;53.608;9.958;2023-02-01T10:43:24;24.23;;;4.80;;
13855;SDS011;6998;53.608;9.958;2023-02-01T10:45:51;26.23;;;5.30;;
13855;SDS011;6998;53.608;9.958;2023-02-01T10:48:23;24.37;;;4.80;;
13855;SDS011;6998;53.608;9.958;2023-02-01T10:50:51;25.47;;;5.23;;
13855;SDS011;6998;53.608;9.958;2023-02-01T10:53:24;26.83;;;6.53;;
13855;SDS011;6998;53.608;9.958;2023-02-01T10:55:56;22.07;;;4.43;;
13855;SDS011;6998;53.608;9.958;2023-02-01T10:58:26;14.50;;;4.17;;
13855;SDS011;6998;53.608;9.958;2023-02-01T11:00:56;32.70;;;4.87;;
13855;SDS011;6998;53.608;9.958;2023-02-01T11:06:17;25.53;;;4.97;;
13855;SDS011;6998;53.608;9.958;2023-02-01T11:14:00;21.63;;;4.17;;
13855;SDS011;6998;53.608;9.958;2023-02-01T11:16:39;21.33;;;4.70;;
13855;SDS011;6998;53.608;9.958;2023-02-01T11:19:06;25.43;;;5.77;;
13855;SDS011;6998;53.608;9.958;2023-02-01T11:21:33;23.03;;;4.47;;
13855;SDS011;6998;53.608;9.958;2023-02-01T11:24:01;25.27;;;6.23;;
13855;SDS011;6998;53.608;9.958;2023-02-01T11:26:29;30.40;;;5.27;;
13855;SDS011;6998;53.608;9.958;2023-02-01T11:28:58;26.03;;;4.90;;
13855;SDS011;6998;53.608;9.958;2023-02-01T11:31:28;27.53;;;5.50;;
13855;SDS011;6998;53.608;9.958;2023-02-01T11:33:57;22.60;;;4.90;;
13855;SDS011;6998;53.608;9.958;2023-02-01T11:36:31;24.73;;;4.50;;
13855;SDS011;6998;53.608;9.958;2023-02-01T11:39:24;29.37;;;5.33;;
13855;SDS011;6998;53.608;9.958;2023-02-01T11:42:03;23.67;;;4.93;;
13855;SDS011;6998;53.608;9.958;2023-02-01T11:44:34;26.53;;;5.60;;
13855;SDS011;6998;53.608;9.958;2023-02-01T11:47:18;30.23;;;5.27;;
13855;SDS011;6998;53.608;9.958;2023-02-01T11:49:47;22.67;;;4.60;;
13855;SDS011;6998;53.608;9.958;2023-02-01T11:55:04;23.07;;;5.07;;
13855;SDS011;6998;53.608;9.958;2023-02-01T11:57:51;21.37;;;4.77;;
13855;SDS011;6998;53.608;9.958;2023-02-01T12:06:08;16.83;;;3.27;;
13855;SDS011;6998;53.608;9.958;2023-02-01T12:08:49;14.37;;;3.27;;
13855;SDS011;6998;53.608;9.958;2023-02-01T12:11:32;16.23;;;3.20;;
13855;SDS011;6998;53.608;9.958;2023-02-01T12:14:13;13.80;;;3.40;;
13855;SDS011;6998;53.608;9.958;2023-02-01T12:16:50;14.20;;;3.47;;
13855;SDS011;6998;53.608;9.958;2023-02-01T12:22:27;12.93;;;3.10;;
13855;SDS011;6998;53.608;9.958;2023-02-01T13:30:17;1.50;;;0.70;;
13855;SDS011;6998;53.608;9.958;2023-02-01T13:38:52;3.70;;;1.03;;
13855;SDS011;6998;53.608;9.958;2023-02-01T13:41:32;2.60;;;1.00;;
13855;SDS011;6998;53.608;9.958;2023-02-01T13:44:10;4.40;;;1.17;;
13855;SDS011;6998;53.608;9.958;2023-02-01T13:46:43;4.57;;;1.00;;
13855;SDS011;6998;53.608;9.958;2023-02-01T13:49:17;3.67;;;1.03;;
13855;SDS011;6998;53.608;9.958;2023-02-01T13:51:47;5.90;;;1.40;;
13855;SDS011;6998;53.608;9.958;2023-02-01T13:54:25;3.37;;;1.20;;
13855;SDS011;6998;53.608;9.958;2023-02-01T13:56:59;6.03;;;1.53;;
13855;SDS011;6998;53.608;9.958;2023-02-01T13:59:48;7.03;;;1.43;;
13855;SDS011;6998;53.608;9.958;2023-02-01T14:13:12;3.10;;;2.33;;
13855;SDS011;6998;53.608;9.958;2023-02-01T14:21:22;6.60;;;2.43;;
13855;SDS011;6998;53.608;9.958;2023-02-01T14:24:00;6.77;;;1.57;;
13855;SDS011;6998;53.608;9.958;2023-02-01T14:26:42;5.63;;;1.63;;
13855;SDS011;6998;53.608;9.958;2023-02-01T14:29:22;9.87;;;5.50;;
13855;SDS011;6998;53.608;9.958;2023-02-01T15:06:04;14.80;;;3.10;;
13855;SDS011;6998;53.608;9.958;2023-02-01T15:08:40;9.53;;;3.10;;
13855;SDS011;6998;53.608;9.958;2023-02-01T15:11:08;14.83;;;3.40;;
13855;SDS011;6998;53.608;9.958;2023-02-01T15:16:29;19.87;;;3.20;;
13855;SDS011;6998;53.608;9.958;2023-02-01T15:19:07;13.60;;;3.43;;
13855;SDS011;6998;53.608;9.958;2023-02-01T15:26:56;15.77;;;3.10;;
13855;SDS011;6998;53.608;9.958;2023-02-01T15:29:31;12.47;;;3.07;;
13855;SDS011;6998;53.608;9.958;2023-02-01T15:32:00;22.57;;;5.93;;
13855;SDS011;6998;53.608;9.958;2023-02-01T15:34:57;20.40;;;3.93;;
13855;SDS011;6998;53.608;9.958;2023-02-01T15:48:35;14.00;;;3.27;;
13855;SDS011;6998;53.608;9.958;2023-02-01T15:51:11;22.87;;;3.90;;
13855;SDS011;6998;53.608;9.958;2023-02-01T15:58:57;31.60;;;12.77;;
13855;SDS011;6998;53.608;9.958;2023-02-01T16:01:27;39.27;;;15.30;;
13855;SDS011;6998;53.608;9.958;2023-02-01T16:04:11;23.33;;;5.83;;
13855;SDS011;6998;53.608;9.958;2023-02-01T16:06:46;26.37;;;6.17;;
13855;SDS011;6998;53.608;9.958;2023-02-01T16:09:16;22.43;;;6.23;;
13855;SDS011;6998;53.608;9.958;2023-02-01T16:12:20;23.30;;;7.33;;
13855;SDS011;6998;53.608;9.958;2023-02-01T16:14:56;27.20;;;11.10;;
13855;SDS011;6998;53.608;9.958;2023-02-01T16:17:23;19.43;;;6.07;;
13855;SDS011;6998;53.608;9.958;2023-02-01T16:19:51;19.87;;;8.17;;
13855;SDS011;6998;53.608;9.958;2023-02-01T16:22:25;21.10;;;4.90;;
13855;SDS011;6998;53.608;9.958;2023-02-01T16:24:53;20.63;;;5.77;;
13855;SDS011;6998;53.608;9.958;2023-02-01T16:27:22;16.70;;;4.30;;
13855;SDS011;6998;53.608;9.958;2023-02-01T16:29:49;20.57;;;5.27;;
13855;SDS011;6998;53.608;9.958;2023-02-01T16:32:17;28.57;;;7.30;;
13855;SDS011;6998;53.608;9.958;2023-02-01T16:34:46;27.63;;;7.23;;
13855;SDS011;6998;53.608;9.958;2023-02-01T16:37:18;21.70;;;6.47;;
13855;SDS011;6998;53.608;9.958;2023-02-01T16:39:54;27.43;;;6.87;;
13855;SDS011;6998;53.608;9.958;2023-02-01T16:42:21;30.33;;;6.17;;
13855;SDS011;6998;53.608;9.958;2023-02-01T16:44:47;27.17;;;7.27;;
13855;SDS011;6998;53.608;9.958;2023-02-01T16:47:26;27.97;;;10.40;;
13855;SDS011;6998;53.608;9.958;2023-02-01T16:49:53;27.40;;;7.47;;
13855;SDS011;6998;53.608;9.958;2023-02-01T16:52:22;25.60;;;5.83;;
13855;SDS011;6998;53.608;9.958;2023-02-01T16:54:51;31.27;;;7.77;;
13855;SDS011;6998;53.608;9.958;2023-02-01T16:57:20;37.67;;;7.57;;
13855;SDS011;6998;53.608;9.958;2023-02-01T16:59:49;26.40;;;7.33;;
13855;SDS011;6998;53.608;9.958;2023-02-01T17:02:23;31.23;;;6.13;;
13855;SDS011;6998;53.608;9.958;2023-02-01T17:04:50;25.83;;;5.50;;
13855;SDS011;6998;53.608;9.958;2023-02-01T17:07:18;29.60;;;6.37;;
13855;SDS011;6998;53.608;9.958;2023-02-01T17:09:47;23.27;;;5.67;;
13855;SDS011;6998;53.608;9.958;2023-02-01T17:12:18;25.07;;;6.13;;
13855;SDS011;6998;53.608;9.958;2023-02-01T17:14:49;30.37;;;6.60;;
13855;SDS011;6998;53.608;9.958;2023-02-01T17:17:18;32.77;;;6.43;;
13855;SDS011;6998;53.608;9.958;2023-02-01T17:19:49;28.27;;;6.40;;
13855;SDS011;6998;53.608;9.958;2023-02-01T17:22:18;27.57;;;6.63;;
13855;SDS011;6998;53.608;9.958;2023-02-01T17:24:49;28.57;;;7.33;;
13855;SDS011;6998;53.608;9.958;2023-02-01T17:32:33;26.03;;;6.47;;
13855;SDS011;6998;53.608;9.958;2023-02-01T17:35:00;28.83;;;6.87;;
13855;SDS011;6998;53.608;9.958;2023-02-01T17:43:01;24.90;;;6.60;;
13855;SDS011;6998;53.608;9.958;2023-02-01T17:48:12;30.13;;;5.73;;
13855;SDS011;6998;53.608;9.958;2023-02-01T17:50:39;26.70;;;5.30;;
13855;SDS011;6998;53.608;9.958;2023-02-01T17:53:09;29.00;;;6.07;;
13855;SDS011;6998;53.608;9.958;2023-02-01T18:01:14;26.87;;;6.30;;
13855;SDS011;6998;53.608;9.958;2023-02-01T18:22:28;25.90;;;5.17;;
13855;SDS011;6998;53.608;9.958;2023-02-01T18:24:56;22.47;;;5.23;;
13855;SDS011;6998;53.608;9.958;2023-02-01T18:32:40;22.83;;;5.63;;
13855;SDS011;6998;53.608;9.958;2023-02-01T18:45:48;28.23;;;6.17;;
13855;SDS011;6998;53.608;9.958;2023-02-01T18:48:16;32.43;;;6.53;;
13855;SDS011;6998;53.608;9.958;2023-02-01T18:50:46;33.50;;;5.97;;
13855;SDS011;6998;53.608;9.958;2023-02-01T19:04:04;25.67;;;6.00;;
13855;SDS011;6998;53.608;9.958;2023-02-01T19:06:31;26.37;;;6.13;;
13855;SDS011;6998;53.608;9.958;2023-02-01T19:11:46;32.80;;;7.47;;
13855;SDS011;6998;53.608;9.958;2023-02-01T20:24:20;31.57;;;8.77;;
